createdAt,value
2018-02-23T00:00:22.664Z,1020.24
2018-02-23T00:01:03.217Z,1020.26
2018-02-23T00:01:43.836Z,1020.27
2018-02-23T00:02:24.400Z,1020.24
2018-02-23T00:03:05.023Z,1020.3
2018-02-23T00:03:45.584Z,1020.27
2018-02-23T00:04:26.173Z,1020.29
2018-02-23T00:05:06.749Z,1020.27
2018-02-23T00:05:47.335Z,1020.25
2018-02-23T00:06:28.096Z,1020.26
2018-02-23T00:07:09.503Z,1020.27
2018-02-23T00:07:50.411Z,1020.25
2018-02-23T00:08:31.457Z,1020.27
2018-02-23T00:09:12.533Z,1020.24
2018-02-23T00:10:05.446Z,1020.23
2018-02-23T00:10:46.162Z,1020.26
2018-02-23T00:11:26.710Z,1020.25
2018-02-23T00:12:07.282Z,1020.25
2018-02-23T00:12:47.844Z,1020.24
2018-02-23T00:13:28.402Z,1020.28
2018-02-23T00:14:09.089Z,1020.31
2018-02-23T00:14:49.605Z,1020.28
2018-02-23T00:15:30.184Z,1020.32
2018-02-23T00:16:10.767Z,1020.28
2018-02-23T00:16:51.339Z,1020.29
2018-02-23T00:17:31.858Z,1020.28
2018-02-23T00:18:12.430Z,1020.27
2018-02-23T00:18:53.024Z,1020.28
2018-02-23T00:19:33.601Z,1020.2
2018-02-23T00:20:14.150Z,1020.18
2018-02-23T00:20:54.836Z,1020.19
2018-02-23T00:21:35.475Z,1020.21
2018-02-23T00:22:16.061Z,1020.2
2018-02-23T00:22:56.605Z,1020.21
2018-02-23T00:23:37.154Z,1020.19
2018-02-23T00:24:17.709Z,1020.16
2018-02-23T00:24:58.281Z,1020.19
2018-02-23T00:25:38.792Z,1020.17
2018-02-23T00:26:19.349Z,1020.17
2018-02-23T00:26:59.925Z,1020.18
2018-02-23T00:27:40.509Z,1020.16
2018-02-23T00:28:21.072Z,1020.13
2018-02-23T00:29:01.682Z,1020.15
2018-02-23T00:29:42.280Z,1020.18
2018-02-23T00:30:22.880Z,1020.15
2018-02-23T00:31:03.472Z,1020.17
2018-02-23T00:31:44.045Z,1020.14
2018-02-23T00:32:24.623Z,1020.14
2018-02-23T00:33:05.167Z,1020.15
2018-02-23T00:33:45.757Z,1020.09
2018-02-23T00:34:26.279Z,1020.15
2018-02-23T00:35:06.818Z,1020.12
2018-02-23T00:35:47.374Z,1020.1
2018-02-23T00:36:27.921Z,1020.1
2018-02-23T00:37:08.463Z,1020.12
2018-02-23T00:37:49.061Z,1020.17
2018-02-23T00:38:29.648Z,1020.1
2018-02-23T00:39:10.261Z,1020.15
2018-02-23T00:39:50.782Z,1020.13
2018-02-23T00:40:31.392Z,1020.11
2018-02-23T00:41:11.958Z,1020.11
2018-02-23T00:41:52.495Z,1020.14
2018-02-23T00:42:33.047Z,1020.14
2018-02-23T00:43:13.604Z,1020.15
2018-02-23T00:43:54.226Z,1020.18
2018-02-23T00:44:34.802Z,1020.15
2018-02-23T00:45:15.379Z,1020.21
2018-02-23T00:45:55.998Z,1020.19
2018-02-23T00:46:36.517Z,1020.2
2018-02-23T00:47:17.051Z,1020.2
2018-02-23T00:47:57.657Z,1020.23
2018-02-23T00:48:38.203Z,1020.23
2018-02-23T00:49:18.746Z,1020.2
2018-02-23T00:49:59.285Z,1020.17
2018-02-23T00:50:39.872Z,1020.2
2018-02-23T00:51:20.397Z,1020.17
2018-02-23T00:52:00.936Z,1020.21
2018-02-23T00:52:41.508Z,1020.17
2018-02-23T00:53:22.069Z,1020.19
2018-02-23T00:54:02.642Z,1020.15
2018-02-23T00:54:43.189Z,1020.14
2018-02-23T00:55:23.764Z,1020.16
2018-02-23T00:56:04.302Z,1020.16
2018-02-23T00:56:44.863Z,1020.13
2018-02-23T00:57:25.404Z,1020.11
2018-02-23T00:58:06.018Z,1020.11
2018-02-23T00:58:46.567Z,1020.11
2018-02-23T00:59:27.096Z,1020.11
2018-02-23T01:00:07.665Z,1020.1
2018-02-23T01:00:48.209Z,1020.08
2018-02-23T01:01:28.778Z,1020.07
2018-02-23T01:02:09.296Z,1020.08
2018-02-23T01:02:49.872Z,1020.11
2018-02-23T01:03:30.513Z,1020.1
2018-02-23T01:04:11.056Z,1020.07
2018-02-23T01:04:51.622Z,1020.09
2018-02-23T01:05:32.216Z,1020.11
2018-02-23T01:06:12.845Z,1020.09
2018-02-23T01:06:53.320Z,1020.12
2018-02-23T01:07:33.898Z,1020.04
2018-02-23T01:08:14.751Z,1020.14
2018-02-23T01:08:55.492Z,1020.11
2018-02-23T01:09:36.309Z,1020.12
2018-02-23T01:10:16.887Z,1020.13
2018-02-23T01:10:57.405Z,1020.11
2018-02-23T01:11:37.946Z,1020.13
2018-02-23T01:12:18.590Z,1020.16
2018-02-23T01:12:59.175Z,1020.1
2018-02-23T01:13:39.679Z,1020.11
2018-02-23T01:14:20.367Z,1020.08
2018-02-23T01:15:00.927Z,1020.13
2018-02-23T01:15:41.613Z,1020.19
2018-02-23T01:16:22.223Z,1020.15
2018-02-23T01:17:02.856Z,1020.19
2018-02-23T01:17:43.790Z,1020.16
2018-02-23T01:18:24.216Z,1020.14
2018-02-23T01:19:04.854Z,1020.16
2018-02-23T01:19:45.455Z,1020.1
2018-02-23T01:20:26.004Z,1020.08
2018-02-23T01:21:06.622Z,1020.09
2018-02-23T01:21:47.251Z,1020.11
2018-02-23T01:22:28.101Z,1020.06
2018-02-23T01:23:08.720Z,1020.13
2018-02-23T01:23:49.428Z,1020.08
2018-02-23T01:24:30.094Z,1020.07
2018-02-23T01:25:10.650Z,1020.08
2018-02-23T01:25:51.206Z,1020.1
2018-02-23T01:26:31.743Z,1020.1
2018-02-23T01:27:12.286Z,1020.06
2018-02-23T01:27:52.830Z,1020.01
2018-02-23T01:28:33.380Z,1020.04
2018-02-23T01:29:13.923Z,1020.03
2018-02-23T01:29:54.549Z,1020.04
2018-02-23T01:30:35.103Z,1020.05
2018-02-23T01:31:15.671Z,1020.01
2018-02-23T01:31:56.237Z,1020.03
2018-02-23T01:32:36.811Z,1020.02
2018-02-23T01:33:17.393Z,1020.04
2018-02-23T01:33:57.934Z,1020.04
2018-02-23T01:34:38.481Z,1020.01
2018-02-23T01:35:19.055Z,1020.07
2018-02-23T01:35:59.627Z,1020.06
2018-02-23T01:36:40.192Z,1020.06
2018-02-23T01:37:20.757Z,1020.07
2018-02-23T01:38:01.418Z,1019.98
2018-02-23T01:38:41.994Z,1020.05
2018-02-23T01:39:22.544Z,1020.02
2018-02-23T01:40:03.102Z,1019.99
2018-02-23T01:40:43.663Z,1020.01
2018-02-23T01:41:24.208Z,1020.01
2018-02-23T01:42:04.802Z,1020.02
2018-02-23T01:42:45.381Z,1020.02
2018-02-23T01:43:25.902Z,1020.01
2018-02-23T01:44:06.444Z,1020.05
2018-02-23T01:44:47.028Z,1020.05
2018-02-23T01:45:27.589Z,1020.01
2018-02-23T01:46:08.119Z,1020.03
2018-02-23T01:46:48.705Z,1020.03
2018-02-23T01:47:29.314Z,1019.99
2018-02-23T01:48:09.907Z,1020.03
2018-02-23T01:48:50.472Z,1019.99
2018-02-23T01:49:31.020Z,1020.02
2018-02-23T01:50:11.577Z,1019.97
2018-02-23T01:50:52.172Z,1019.98
2018-02-23T01:51:32.708Z,1019.97
2018-02-23T01:52:13.262Z,1020
2018-02-23T01:52:53.838Z,1019.97
2018-02-23T01:53:34.390Z,1019.97
2018-02-23T01:54:14.935Z,1019.96
2018-02-23T01:54:55.479Z,1020.01
2018-02-23T01:55:36.056Z,1019.98
2018-02-23T01:56:16.609Z,1020.04
2018-02-23T01:56:57.154Z,1020
2018-02-23T01:57:37.700Z,1020
2018-02-23T01:58:18.252Z,1019.98
2018-02-23T01:58:58.857Z,1019.98
2018-02-23T01:59:39.423Z,1019.97
2018-02-23T02:00:19.979Z,1019.98
2018-02-23T02:01:00.563Z,1019.95
2018-02-23T02:01:41.101Z,1019.95
2018-02-23T02:02:21.654Z,1019.94
2018-02-23T02:03:02.226Z,1019.89
2018-02-23T02:03:42.784Z,1019.96
2018-02-23T02:04:23.330Z,1019.95
2018-02-23T02:05:03.895Z,1019.89
2018-02-23T02:05:44.486Z,1019.9
2018-02-23T02:06:25.008Z,1019.9
2018-02-23T02:07:05.621Z,1019.93
2018-02-23T02:07:46.165Z,1019.91
2018-02-23T02:08:26.728Z,1019.91
2018-02-23T02:09:07.270Z,1019.92
2018-02-23T02:09:47.820Z,1019.94
2018-02-23T02:10:28.383Z,1019.93
2018-02-23T02:11:08.968Z,1019.93
2018-02-23T02:11:49.552Z,1019.95
2018-02-23T02:12:30.163Z,1019.9
2018-02-23T02:13:10.686Z,1019.9
2018-02-23T02:13:51.240Z,1019.94
2018-02-23T02:14:31.797Z,1019.89
2018-02-23T02:15:12.477Z,1019.88
2018-02-23T02:15:53.035Z,1019.92
2018-02-23T02:16:33.601Z,1019.95
2018-02-23T02:17:14.168Z,1019.91
2018-02-23T02:17:54.742Z,1019.97
2018-02-23T02:18:35.298Z,1019.91
2018-02-23T02:19:15.859Z,1019.94
2018-02-23T02:19:56.402Z,1019.92
2018-02-23T02:20:36.987Z,1019.9
2018-02-23T02:21:17.534Z,1019.93
2018-02-23T02:21:58.096Z,1019.94
2018-02-23T02:22:38.659Z,1019.93
2018-02-23T02:23:19.234Z,1019.88
2018-02-23T02:23:59.783Z,1019.93
2018-02-23T02:24:40.333Z,1019.92
2018-02-23T02:25:20.885Z,1019.87
2018-02-23T02:26:01.436Z,1019.85
2018-02-23T02:26:41.989Z,1019.91
2018-02-23T02:27:22.558Z,1019.87
2018-02-23T02:28:03.116Z,1019.86
2018-02-23T02:28:43.695Z,1019.91
2018-02-23T02:29:24.232Z,1019.87
2018-02-23T02:30:04.809Z,1019.88
2018-02-23T02:30:45.352Z,1019.87
2018-02-23T02:31:25.914Z,1019.82
2018-02-23T02:32:06.458Z,1019.87
2018-02-23T02:32:47.005Z,1019.84
2018-02-23T02:33:27.575Z,1019.85
2018-02-23T02:34:08.151Z,1019.9
2018-02-23T02:34:48.695Z,1019.86
2018-02-23T02:35:29.278Z,1019.85
2018-02-23T02:36:09.833Z,1019.84
2018-02-23T02:36:50.402Z,1019.83
2018-02-23T02:37:30.970Z,1019.85
2018-02-23T02:38:11.532Z,1019.91
2018-02-23T02:38:52.094Z,1019.84
2018-02-23T02:39:32.663Z,1019.88
2018-02-23T02:40:13.224Z,1019.85
2018-02-23T02:40:53.775Z,1019.9
2018-02-23T02:41:34.320Z,1019.87
2018-02-23T02:42:14.876Z,1019.91
2018-02-23T02:42:55.448Z,1019.88
2018-02-23T02:43:35.998Z,1019.88
2018-02-23T02:44:16.544Z,1019.89
2018-02-23T02:44:57.090Z,1019.85
2018-02-23T02:45:37.648Z,1019.83
2018-02-23T02:46:18.197Z,1019.86
2018-02-23T02:46:58.727Z,1019.83
2018-02-23T02:47:39.323Z,1019.86
2018-02-23T02:48:19.953Z,1019.88
2018-02-23T02:49:00.443Z,1019.84
2018-02-23T02:49:41.051Z,1019.8
2018-02-23T02:50:21.585Z,1019.82
2018-02-23T02:51:02.134Z,1019.82
2018-02-23T02:51:42.684Z,1019.8
2018-02-23T02:52:23.240Z,1019.84
2018-02-23T02:53:03.803Z,1019.83
2018-02-23T02:53:44.364Z,1019.84
2018-02-23T02:54:24.915Z,1019.85
2018-02-23T02:55:05.467Z,1019.87
2018-02-23T02:55:46.002Z,1019.87
2018-02-23T02:56:26.561Z,1019.84
2018-02-23T02:57:07.149Z,1019.87
2018-02-23T02:57:47.692Z,1019.86
2018-02-23T02:58:28.240Z,1019.83
2018-02-23T02:59:08.771Z,1019.83
2018-02-23T02:59:49.307Z,1019.83
2018-02-23T03:00:29.854Z,1019.84
2018-02-23T03:01:10.424Z,1019.82
2018-02-23T03:01:50.968Z,1019.82
2018-02-23T03:02:31.516Z,1019.81
2018-02-23T03:03:12.080Z,1019.84
2018-02-23T03:03:52.638Z,1019.79
2018-02-23T03:04:33.204Z,1019.84
2018-02-23T03:05:13.800Z,1019.84
2018-02-23T03:05:54.374Z,1019.87
2018-02-23T03:06:34.932Z,1019.88
2018-02-23T03:07:15.513Z,1019.87
2018-02-23T03:07:56.113Z,1019.87
2018-02-23T03:08:36.647Z,1019.91
2018-02-23T03:09:17.284Z,1019.86
2018-02-23T03:09:57.856Z,1019.9
2018-02-23T03:10:38.404Z,1019.91
2018-02-23T03:11:18.953Z,1019.92
2018-02-23T03:11:59.501Z,1019.9
2018-02-23T03:12:40.052Z,1019.9
2018-02-23T03:13:20.629Z,1019.88
2018-02-23T03:14:01.178Z,1019.91
2018-02-23T03:14:41.734Z,1019.88
2018-02-23T03:15:22.305Z,1019.92
2018-02-23T03:16:02.854Z,1019.86
2018-02-23T03:16:43.404Z,1019.94
2018-02-23T03:17:23.942Z,1019.92
2018-02-23T03:18:04.503Z,1019.89
2018-02-23T03:18:45.070Z,1019.89
2018-02-23T03:19:25.616Z,1019.89
2018-02-23T03:20:06.188Z,1019.91
2018-02-23T03:20:46.738Z,1019.93
2018-02-23T03:21:27.292Z,1019.83
2018-02-23T03:22:07.823Z,1019.84
2018-02-23T03:22:48.366Z,1019.86
2018-02-23T03:23:28.933Z,1019.86
2018-02-23T03:24:09.501Z,1019.82
2018-02-23T03:24:50.035Z,1019.83
2018-02-23T03:25:30.594Z,1019.82
2018-02-23T03:26:11.126Z,1019.81
2018-02-23T03:26:51.720Z,1019.75
2018-02-23T03:27:32.299Z,1019.79
2018-02-23T03:28:12.875Z,1019.78
2018-02-23T03:28:53.419Z,1019.8
2018-02-23T03:29:33.970Z,1019.79
2018-02-23T03:30:14.523Z,1019.81
2018-02-23T03:30:55.073Z,1019.78
2018-02-23T03:31:35.630Z,1019.83
2018-02-23T03:32:16.200Z,1019.83
2018-02-23T03:32:56.780Z,1019.83
2018-02-23T03:33:37.329Z,1019.84
2018-02-23T03:34:17.915Z,1019.89
2018-02-23T03:34:58.457Z,1019.84
2018-02-23T03:35:39.036Z,1019.86
2018-02-23T03:36:19.590Z,1019.84
2018-02-23T03:37:00.143Z,1019.83
2018-02-23T03:37:40.698Z,1019.88
2018-02-23T03:38:21.242Z,1019.87
2018-02-23T03:39:01.806Z,1019.88
2018-02-23T03:39:42.362Z,1019.86
2018-02-23T03:40:22.909Z,1019.89
2018-02-23T03:41:03.452Z,1019.84
2018-02-23T03:41:44.036Z,1019.88
2018-02-23T03:42:24.580Z,1019.86
2018-02-23T03:43:05.143Z,1019.88
2018-02-23T03:43:45.692Z,1019.85
2018-02-23T03:44:26.262Z,1019.89
2018-02-23T03:45:06.836Z,1019.94
2018-02-23T03:45:47.409Z,1019.92
2018-02-23T03:46:27.962Z,1019.94
2018-02-23T03:47:08.507Z,1019.93
2018-02-23T03:47:49.108Z,1019.96
2018-02-23T03:48:29.661Z,1019.99
2018-02-23T03:49:10.218Z,1020.02
2018-02-23T03:49:50.759Z,1020.02
2018-02-23T03:50:31.303Z,1020.03
2018-02-23T03:51:11.837Z,1020.05
2018-02-23T03:51:52.396Z,1020.06
2018-02-23T03:52:32.964Z,1020.1
2018-02-23T03:53:13.508Z,1020.06
2018-02-23T03:53:54.060Z,1020.07
2018-02-23T03:54:34.657Z,1020.05
2018-02-23T03:55:15.198Z,1020.04
2018-02-23T03:55:55.753Z,1020.03
2018-02-23T03:56:36.331Z,1020.04
2018-02-23T03:57:16.922Z,1020.02
2018-02-23T03:57:57.474Z,1020
2018-02-23T03:58:38.003Z,1020.02
2018-02-23T03:59:18.556Z,1020.03
2018-02-23T03:59:59.093Z,1020.01
2018-02-23T04:00:39.639Z,1020.05
2018-02-23T04:01:20.185Z,1020.04
2018-02-23T04:02:00.752Z,1020.01
2018-02-23T04:02:41.287Z,1020.05
2018-02-23T04:03:21.839Z,1020.04
2018-02-23T04:04:02.396Z,1020.06
2018-02-23T04:04:42.949Z,1020.05
2018-02-23T04:05:23.501Z,1020.06
2018-02-23T04:06:04.056Z,1020.09
2018-02-23T04:06:44.604Z,1020.07
2018-02-23T04:07:25.170Z,1020.06
2018-02-23T04:08:05.731Z,1020.12
2018-02-23T04:08:46.314Z,1020.1
2018-02-23T04:09:26.878Z,1020.11
2018-02-23T04:10:07.470Z,1020.08
2018-02-23T04:10:48.054Z,1020.1
2018-02-23T04:11:28.588Z,1020.1
2018-02-23T04:12:09.149Z,1020.12
2018-02-23T04:12:49.693Z,1020.07
2018-02-23T04:13:30.248Z,1020.08
2018-02-23T04:14:10.853Z,1020.05
2018-02-23T04:14:51.417Z,1020.09
2018-02-23T04:15:31.990Z,1020.07
2018-02-23T04:16:12.620Z,1020.08
2018-02-23T04:16:53.172Z,1020.03
2018-02-23T04:17:33.709Z,1020.09
2018-02-23T04:18:14.256Z,1020.09
2018-02-23T04:18:54.805Z,1020.09
2018-02-23T04:19:35.352Z,1020.1
2018-02-23T04:20:15.874Z,1020.14
2018-02-23T04:20:56.481Z,1020.12
2018-02-23T04:21:37.086Z,1020.09
2018-02-23T04:22:17.561Z,1020.03
2018-02-23T04:22:58.122Z,1020.09
2018-02-23T04:23:38.664Z,1020.06
2018-02-23T04:24:19.226Z,1020.04
2018-02-23T04:24:59.773Z,1020.02
2018-02-23T04:25:40.353Z,1020.06
2018-02-23T04:26:20.865Z,1020.04
2018-02-23T04:27:01.410Z,1020.04
2018-02-23T04:27:41.964Z,1020.01
2018-02-23T04:28:22.528Z,1020.08
2018-02-23T04:29:03.123Z,1020.07
2018-02-23T04:29:43.701Z,1020.08
2018-02-23T04:30:24.246Z,1020.1
2018-02-23T04:31:04.824Z,1020.05
2018-02-23T04:31:45.378Z,1020.11
2018-02-23T04:32:26.002Z,1020.06
2018-02-23T04:33:06.551Z,1020.14
2018-02-23T04:33:47.096Z,1020.06
2018-02-23T04:34:27.661Z,1020.04
2018-02-23T04:35:08.208Z,1020.06
2018-02-23T04:35:48.772Z,1020.06
2018-02-23T04:36:29.346Z,1020.05
2018-02-23T04:37:09.909Z,1020.05
2018-02-23T04:37:50.512Z,1020.12
2018-02-23T04:38:31.061Z,1020.13
2018-02-23T04:39:11.615Z,1020.11
2018-02-23T04:39:52.168Z,1020.11
2018-02-23T04:40:32.721Z,1020.11
2018-02-23T04:41:13.261Z,1020.15
2018-02-23T04:41:53.821Z,1020.11
2018-02-23T04:42:34.368Z,1020.16
2018-02-23T04:43:14.919Z,1020.16
2018-02-23T04:43:55.515Z,1020.14
2018-02-23T04:44:36.013Z,1020.15
2018-02-23T04:45:16.578Z,1020.19
2018-02-23T04:45:57.142Z,1020.17
2018-02-23T04:46:37.683Z,1020.14
2018-02-23T04:47:18.236Z,1020.16
2018-02-23T04:47:58.798Z,1020.15
2018-02-23T04:48:39.336Z,1020.13
2018-02-23T04:49:19.879Z,1020.17
2018-02-23T04:50:00.430Z,1020.14
2018-02-23T04:50:40.986Z,1020.16
2018-02-23T04:51:21.531Z,1020.14
2018-02-23T04:52:02.157Z,1020.16
2018-02-23T04:52:42.719Z,1020.17
2018-02-23T04:53:23.272Z,1020.2
2018-02-23T04:54:03.822Z,1020.18
2018-02-23T04:54:44.365Z,1020.18
2018-02-23T04:55:24.914Z,1020.21
2018-02-23T04:56:05.470Z,1020.22
2018-02-23T04:56:46.051Z,1020.29
2018-02-23T04:57:26.595Z,1020.22
2018-02-23T04:58:07.145Z,1020.2
2018-02-23T04:58:47.707Z,1020.21
2018-02-23T04:59:28.275Z,1020.23
2018-02-23T05:00:08.807Z,1020.24
2018-02-23T05:00:49.365Z,1020.24
2018-02-23T05:01:29.906Z,1020.27
2018-02-23T05:02:10.460Z,1020.29
2018-02-23T05:02:51.014Z,1020.33
2018-02-23T05:03:31.560Z,1020.28
2018-02-23T05:04:12.112Z,1020.28
2018-02-23T05:04:52.698Z,1020.31
2018-02-23T05:05:33.258Z,1020.26
2018-02-23T05:06:13.846Z,1020.31
2018-02-23T05:06:54.410Z,1020.31
2018-02-23T05:07:34.952Z,1020.28
2018-02-23T05:08:15.523Z,1020.28
2018-02-23T05:08:56.043Z,1020.33
2018-02-23T05:09:36.603Z,1020.31
2018-02-23T05:10:17.151Z,1020.32
2018-02-23T05:10:57.718Z,1020.3
2018-02-23T05:11:38.283Z,1020.28
2018-02-23T05:12:18.832Z,1020.32
2018-02-23T05:12:59.380Z,1020.31
2018-02-23T05:13:39.933Z,1020.3
2018-02-23T05:14:20.487Z,1020.3
2018-02-23T05:15:01.038Z,1020.36
2018-02-23T05:15:41.620Z,1020.27
2018-02-23T05:16:22.169Z,1020.35
2018-02-23T05:17:02.784Z,1020.34
2018-02-23T05:17:43.330Z,1020.32
2018-02-23T05:18:23.864Z,1020.31
2018-02-23T05:19:04.473Z,1020.32
2018-02-23T05:19:45.034Z,1020.32
2018-02-23T05:20:25.568Z,1020.33
2018-02-23T05:21:06.141Z,1020.29
2018-02-23T05:21:46.722Z,1020.36
2018-02-23T05:22:27.286Z,1020.36
2018-02-23T05:23:07.823Z,1020.39
2018-02-23T05:23:48.369Z,1020.43
2018-02-23T05:24:28.924Z,1020.41
2018-02-23T05:25:09.494Z,1020.4
2018-02-23T05:25:50.076Z,1020.38
2018-02-23T05:26:30.630Z,1020.39
2018-02-23T05:27:11.164Z,1020.34
2018-02-23T05:27:51.815Z,1020.35
2018-02-23T05:28:32.386Z,1020.37
2018-02-23T05:29:12.945Z,1020.43
2018-02-23T05:29:53.668Z,1020.4
2018-02-23T05:30:34.220Z,1020.47
2018-02-23T05:31:14.774Z,1020.42
2018-02-23T05:31:55.332Z,1020.41
2018-02-23T05:32:35.952Z,1020.39
2018-02-23T05:33:16.508Z,1020.4
2018-02-23T05:33:57.055Z,1020.42
2018-02-23T05:34:37.612Z,1020.4
2018-02-23T05:35:18.210Z,1020.44
2018-02-23T05:35:58.747Z,1020.46
2018-02-23T05:36:39.290Z,1020.42
2018-02-23T05:37:19.839Z,1020.43
2018-02-23T05:38:00.378Z,1020.45
2018-02-23T05:38:40.944Z,1020.42
2018-02-23T05:39:21.511Z,1020.4
2018-02-23T05:40:02.084Z,1020.45
2018-02-23T05:40:42.693Z,1020.43
2018-02-23T05:41:23.252Z,1020.48
2018-02-23T05:42:03.809Z,1020.47
2018-02-23T05:42:44.351Z,1020.46
2018-02-23T05:43:24.877Z,1020.43
2018-02-23T05:44:05.423Z,1020.48
2018-02-23T05:44:45.979Z,1020.43
2018-02-23T05:45:26.526Z,1020.4
2018-02-23T05:46:07.108Z,1020.46
2018-02-23T05:46:47.659Z,1020.44
2018-02-23T05:47:28.213Z,1020.36
2018-02-23T05:48:08.767Z,1020.4
2018-02-23T05:48:49.319Z,1020.41
2018-02-23T05:49:29.873Z,1020.41
2018-02-23T05:50:10.490Z,1020.39
2018-02-23T05:50:51.066Z,1020.43
2018-02-23T05:51:31.598Z,1020.4
2018-02-23T05:52:12.145Z,1020.46
2018-02-23T05:52:52.705Z,1020.47
2018-02-23T05:53:33.281Z,1020.46
2018-02-23T05:54:13.830Z,1020.48
2018-02-23T05:54:54.488Z,1020.51
2018-02-23T05:55:35.038Z,1020.54
2018-02-23T05:56:15.591Z,1020.53
2018-02-23T05:56:56.141Z,1020.52
2018-02-23T05:57:36.685Z,1020.55
2018-02-23T05:58:17.234Z,1020.55
2018-02-23T05:58:57.783Z,1020.54
2018-02-23T05:59:38.332Z,1020.51
2018-02-23T06:00:18.889Z,1020.53
2018-02-23T06:00:59.499Z,1020.48
2018-02-23T06:01:39.984Z,1020.52
2018-02-23T06:02:20.540Z,1020.52
2018-02-23T06:03:01.092Z,1020.5
2018-02-23T06:03:41.655Z,1020.54
2018-02-23T06:04:22.229Z,1020.58
2018-02-23T06:05:02.782Z,1020.57
2018-02-23T06:05:43.349Z,1020.59
2018-02-23T06:06:23.899Z,1020.57
2018-02-23T06:07:04.466Z,1020.6
2018-02-23T06:07:45.014Z,1020.64
2018-02-23T06:08:25.576Z,1020.66
2018-02-23T06:09:06.123Z,1020.65
2018-02-23T06:09:46.690Z,1020.69
2018-02-23T06:10:27.234Z,1020.66
2018-02-23T06:11:07.826Z,1020.7
2018-02-23T06:11:48.334Z,1020.69
2018-02-23T06:12:28.899Z,1020.72
2018-02-23T06:13:09.452Z,1020.69
2018-02-23T06:13:49.996Z,1020.71
2018-02-23T06:14:30.542Z,1020.7
2018-02-23T06:15:11.102Z,1020.74
2018-02-23T06:15:51.651Z,1020.71
2018-02-23T06:16:32.202Z,1020.74
2018-02-23T06:17:12.759Z,1020.75
2018-02-23T06:17:53.309Z,1020.7
2018-02-23T06:18:33.861Z,1020.68
2018-02-23T06:19:14.422Z,1020.74
2018-02-23T06:19:54.982Z,1020.69
2018-02-23T06:20:35.606Z,1020.66
2018-02-23T06:21:16.497Z,1020.67
2018-02-23T06:21:57.046Z,1020.69
2018-02-23T06:22:37.589Z,1020.69
2018-02-23T06:23:18.196Z,1020.65
2018-02-23T06:23:58.788Z,1020.66
2018-02-23T06:24:39.615Z,1020.67
2018-02-23T06:25:20.082Z,1020.66
2018-02-23T06:26:00.676Z,1020.69
2018-02-23T06:26:41.249Z,1020.75
2018-02-23T06:27:21.795Z,1020.74
2018-02-23T06:28:02.361Z,1020.77
2018-02-23T06:28:42.931Z,1020.76
2018-02-23T06:29:23.475Z,1020.75
2018-02-23T06:30:04.024Z,1020.77
2018-02-23T06:30:44.584Z,1020.76
2018-02-23T06:31:25.166Z,1020.8
2018-02-23T06:32:05.727Z,1020.83
2018-02-23T06:32:46.356Z,1020.88
2018-02-23T06:33:26.913Z,1020.86
2018-02-23T06:34:07.462Z,1020.88
2018-02-23T06:34:48.010Z,1020.89
2018-02-23T06:35:28.546Z,1020.86
2018-02-23T06:36:09.123Z,1020.83
2018-02-23T06:36:49.668Z,1020.84
2018-02-23T06:37:30.243Z,1020.92
2018-02-23T06:38:10.839Z,1020.93
2018-02-23T06:38:51.398Z,1020.94
2018-02-23T06:39:32.003Z,1020.91
2018-02-23T06:40:12.925Z,1020.92
2018-02-23T06:40:53.471Z,1020.91
2018-02-23T06:41:34.035Z,1020.95
2018-02-23T06:42:14.599Z,1020.95
2018-02-23T06:42:55.146Z,1020.99
2018-02-23T06:43:35.699Z,1020.95
2018-02-23T06:44:16.270Z,1020.94
2018-02-23T06:44:56.802Z,1020.96
2018-02-23T06:45:37.353Z,1020.99
2018-02-23T06:46:17.906Z,1020.99
2018-02-23T06:46:58.481Z,1020.95
2018-02-23T06:47:39.023Z,1020.97
2018-02-23T06:48:19.568Z,1021
2018-02-23T06:49:00.122Z,1020.98
2018-02-23T06:49:40.705Z,1021
2018-02-23T06:50:21.263Z,1021.02
2018-02-23T06:51:01.832Z,1021.01
2018-02-23T06:51:42.381Z,1021.05
2018-02-23T06:52:22.981Z,1021.06
2018-02-23T06:53:03.494Z,1021.08
2018-02-23T06:53:44.069Z,1021.17
2018-02-23T06:54:24.630Z,1021.1
2018-02-23T06:55:05.232Z,1021.1
2018-02-23T06:55:45.773Z,1021.05
2018-02-23T06:56:26.359Z,1021.11
2018-02-23T06:57:06.994Z,1021.1
2018-02-23T06:57:47.533Z,1021.17
2018-02-23T06:58:28.082Z,1021.15
2018-02-23T06:59:08.643Z,1021.17
2018-02-23T06:59:49.244Z,1021.14
2018-02-23T07:00:29.767Z,1021.17
2018-02-23T07:01:10.321Z,1021.21
2018-02-23T07:01:50.956Z,1021.17
2018-02-23T07:02:31.479Z,1021.2
2018-02-23T07:03:12.044Z,1021.19
2018-02-23T07:03:52.585Z,1021.2
2018-02-23T07:04:33.168Z,1021.18
2018-02-23T07:05:13.734Z,1021.17
2018-02-23T07:05:54.309Z,1021.15
2018-02-23T07:06:34.849Z,1021.19
2018-02-23T07:07:15.450Z,1021.14
2018-02-23T07:07:55.993Z,1021.13
2018-02-23T07:08:36.538Z,1021.11
2018-02-23T07:09:17.101Z,1021.12
2018-02-23T07:09:57.810Z,1021.15
2018-02-23T07:10:38.368Z,1021.12
2018-02-23T07:11:18.906Z,1021.06
2018-02-23T07:11:59.458Z,1021.14
2018-02-23T07:12:40.062Z,1021.11
2018-02-23T07:13:20.608Z,1021.13
2018-02-23T07:14:01.189Z,1021.11
2018-02-23T07:14:41.757Z,1021.11
2018-02-23T07:15:22.346Z,1021.07
2018-02-23T07:16:02.917Z,1021.09
2018-02-23T07:16:44.237Z,1021.09
2018-02-23T07:17:25.095Z,1021.12
2018-02-23T07:18:05.659Z,1021.11
2018-02-23T07:18:46.964Z,1021.12
2018-02-23T07:19:27.522Z,1021.18
2018-02-23T07:20:08.077Z,1021.18
2018-02-23T07:20:48.651Z,1021.15
2018-02-23T07:21:29.210Z,1021.16
2018-02-23T07:22:09.751Z,1021.21
2018-02-23T07:22:50.295Z,1021.22
2018-02-23T07:23:30.869Z,1021.18
2018-02-23T07:24:11.450Z,1021.21
2018-02-23T07:24:51.966Z,1021.21
2018-02-23T07:25:32.533Z,1021.24
2018-02-23T07:26:13.076Z,1021.18
2018-02-23T07:26:53.632Z,1021.2
2018-02-23T07:27:34.193Z,1021.31
2018-02-23T07:28:14.740Z,1021.26
2018-02-23T07:28:55.289Z,1021.26
2018-02-23T07:29:35.851Z,1021.27
2018-02-23T07:30:16.415Z,1021.25
2018-02-23T07:30:56.959Z,1021.3
2018-02-23T07:31:37.517Z,1021.26
2018-02-23T07:32:18.071Z,1021.29
2018-02-23T07:32:58.623Z,1021.22
2018-02-23T07:33:39.169Z,1021.24
2018-02-23T07:34:19.715Z,1021.27
2018-02-23T07:35:00.257Z,1021.24
2018-02-23T07:35:40.817Z,1021.29
2018-02-23T07:36:21.429Z,1021.31
2018-02-23T07:37:01.966Z,1021.26
2018-02-23T07:37:42.537Z,1021.35
2018-02-23T07:38:23.104Z,1021.26
2018-02-23T07:39:03.681Z,1021.35
2018-02-23T07:39:44.221Z,1021.34
2018-02-23T07:40:24.792Z,1021.32
2018-02-23T07:41:05.336Z,1021.35
2018-02-23T07:41:45.915Z,1021.3
2018-02-23T07:42:26.446Z,1021.33
2018-02-23T07:43:07.125Z,1021.3
2018-02-23T07:43:47.681Z,1021.29
2018-02-23T07:44:28.251Z,1021.31
2018-02-23T07:45:10.589Z,1021.26
2018-02-23T07:45:51.147Z,1021.24
2018-02-23T07:46:31.687Z,1021.32
2018-02-23T07:47:12.347Z,1021.28
2018-02-23T07:47:52.877Z,1021.32
2018-02-23T07:48:33.426Z,1021.28
2018-02-23T07:49:13.978Z,1021.32
2018-02-23T07:49:54.546Z,1021.3
2018-02-23T07:50:35.119Z,1021.36
2018-02-23T07:51:15.794Z,1021.36
2018-02-23T07:51:57.195Z,1021.38
2018-02-23T07:52:37.865Z,1021.32
2018-02-23T07:53:18.426Z,1021.4
2018-02-23T07:53:58.979Z,1021.43
2018-02-23T07:54:39.519Z,1021.41
2018-02-23T07:55:20.080Z,1021.43
2018-02-23T07:56:00.694Z,1021.42
2018-02-23T07:56:41.284Z,1021.43
2018-02-23T07:57:21.999Z,1021.46
2018-02-23T07:58:02.559Z,1021.44
2018-02-23T07:58:43.992Z,1021.44
2018-02-23T07:59:24.528Z,1021.47
2018-02-23T08:00:05.779Z,1021.46
2018-02-23T08:00:46.332Z,1021.4
2018-02-23T08:01:26.858Z,1021.47
2018-02-23T08:02:07.416Z,1021.5
2018-02-23T08:02:47.968Z,1021.5
2018-02-23T08:03:28.523Z,1021.47
2018-02-23T08:04:09.431Z,1021.52
2018-02-23T08:04:49.985Z,1021.5
2018-02-23T08:05:30.577Z,1021.52
2018-02-23T08:06:11.243Z,1021.53
2018-02-23T08:06:51.837Z,1021.54
2018-02-23T08:07:33.046Z,1021.54
2018-02-23T08:08:13.603Z,1021.61
2018-02-23T08:08:54.162Z,1021.65
2018-02-23T08:09:34.712Z,1021.64
2018-02-23T08:10:15.471Z,1021.6
2018-02-23T08:10:56.012Z,1021.65
2018-02-23T08:11:36.566Z,1021.73
2018-02-23T08:12:17.350Z,1021.74
2018-02-23T08:12:57.992Z,1021.82